createdAt,value
2018-07-31T00:00:32.829Z,4.50
2018-07-31T00:03:01.179Z,4.93
2018-07-31T00:05:29.491Z,5.10
2018-07-31T00:07:57.838Z,5.33
2018-07-31T00:10:26.236Z,4.80
2018-07-31T00:12:54.525Z,5.47
2018-07-31T00:15:22.855Z,4.83
2018-07-31T00:17:51.219Z,5.20
2018-07-31T00:20:19.560Z,5.37
2018-07-31T00:22:47.904Z,5.30
2018-07-31T00:25:16.216Z,5.20
2018-07-31T00:27:44.532Z,5.03
2018-07-31T00:30:12.938Z,4.80
2018-07-31T00:32:41.271Z,5.30
2018-07-31T00:35:09.580Z,5.33
2018-07-31T00:37:37.905Z,5.50
2018-07-31T00:40:06.252Z,5.10
2018-07-31T00:42:34.596Z,5.90
2018-07-31T00:45:02.942Z,5.63
2018-07-31T00:47:32.020Z,5.40
2018-07-31T00:50:00.343Z,5.13
2018-07-31T00:52:28.784Z,5.57
2018-07-31T00:54:57.140Z,5.63
2018-07-31T00:57:25.471Z,5.40
2018-07-31T00:59:53.797Z,5.47
2018-07-31T01:02:22.137Z,5.10
2018-07-31T01:04:50.451Z,5.60
2018-07-31T01:07:18.828Z,5.53
2018-07-31T01:09:47.157Z,5.23
2018-07-31T01:12:15.488Z,5.67
2018-07-31T01:14:43.826Z,6.07
2018-07-31T01:17:12.206Z,5.97
2018-07-31T01:19:40.660Z,6.23
2018-07-31T01:22:09.000Z,5.30
2018-07-31T01:24:37.371Z,5.50
2018-07-31T01:27:05.691Z,5.67
2018-07-31T01:29:34.000Z,5.50
2018-07-31T01:32:02.346Z,5.43
2018-07-31T01:34:30.649Z,5.43
2018-07-31T01:36:58.959Z,5.10
2018-07-31T01:39:27.278Z,5.43
2018-07-31T01:41:55.583Z,5.50
2018-07-31T01:44:23.915Z,5.80
2018-07-31T01:46:52.294Z,5.60
2018-07-31T01:49:20.628Z,5.43
2018-07-31T01:51:48.937Z,5.70
2018-07-31T01:54:17.276Z,5.77
2018-07-31T01:56:45.606Z,5.53
2018-07-31T01:59:13.960Z,5.97
2018-07-31T02:01:42.384Z,6.10
2018-07-31T02:04:10.720Z,5.90
2018-07-31T02:06:39.068Z,5.90
2018-07-31T02:09:08.203Z,5.87
2018-07-31T02:11:36.544Z,6.53
2018-07-31T02:14:04.995Z,6.50
2018-07-31T02:16:33.313Z,5.70
2018-07-31T02:19:01.636Z,6.03
2018-07-31T02:21:29.972Z,5.87
2018-07-31T02:23:58.340Z,6.70
2018-07-31T02:26:26.686Z,5.87
2018-07-31T02:28:55.009Z,6.53
2018-07-31T02:31:23.344Z,6.07
2018-07-31T02:33:51.714Z,5.60
2018-07-31T02:36:20.072Z,5.87
2018-07-31T02:38:48.400Z,6.20
2018-07-31T02:41:16.780Z,6.03
2018-07-31T02:43:45.106Z,6.07
2018-07-31T02:46:13.443Z,6.33
2018-07-31T02:48:41.790Z,5.80
2018-07-31T02:51:10.122Z,6.20
2018-07-31T02:53:38.475Z,6.17
2018-07-31T02:56:06.823Z,6.30
2018-07-31T02:58:35.161Z,6.03
2018-07-31T03:01:03.494Z,5.83
2018-07-31T03:03:31.884Z,6.53
2018-07-31T03:06:00.207Z,6.23
2018-07-31T03:08:28.543Z,6.47
2018-07-31T03:10:56.875Z,6.40
2018-07-31T03:13:25.199Z,7.00
2018-07-31T03:15:53.579Z,6.60
2018-07-31T03:18:21.910Z,6.83
2018-07-31T03:20:50.227Z,7.47
2018-07-31T03:23:18.581Z,7.03
2018-07-31T03:25:46.895Z,6.97
2018-07-31T03:28:15.264Z,6.37
2018-07-31T03:30:43.583Z,7.03
2018-07-31T03:33:11.897Z,6.90
2018-07-31T03:35:40.270Z,6.80
2018-07-31T03:38:08.616Z,6.37
2018-07-31T03:40:37.013Z,6.97
2018-07-31T03:43:05.336Z,6.40
2018-07-31T03:45:33.724Z,7.00
2018-07-31T03:48:02.101Z,7.27
2018-07-31T03:50:30.445Z,7.23
2018-07-31T03:52:58.775Z,6.70
2018-07-31T03:55:27.174Z,7.10
2018-07-31T03:57:55.482Z,7.03
2018-07-31T04:00:23.816Z,7.00
2018-07-31T04:02:52.161Z,7.13
2018-07-31T04:05:20.540Z,7.10
2018-07-31T04:07:48.844Z,7.40
2018-07-31T04:10:17.192Z,7.50
2018-07-31T04:12:45.520Z,7.00
2018-07-31T04:15:13.840Z,7.10
2018-07-31T04:17:46.332Z,6.67
2018-07-31T04:20:14.855Z,6.97
2018-07-31T04:22:43.218Z,7.40
2018-07-31T04:25:11.576Z,7.30
2018-07-31T04:27:39.920Z,7.40
2018-07-31T04:30:08.260Z,6.30
2018-07-31T04:32:36.595Z,6.73
2018-07-31T04:35:05.058Z,6.43
2018-07-31T04:37:33.364Z,7.47
2018-07-31T04:40:01.683Z,6.80
2018-07-31T04:42:30.017Z,6.57
2018-07-31T04:44:58.353Z,6.57
2018-07-31T04:47:26.683Z,7.23
2018-07-31T04:49:55.008Z,7.00
2018-07-31T04:52:23.402Z,7.23
2018-07-31T04:54:51.730Z,7.20
2018-07-31T04:57:20.066Z,7.43
2018-07-31T04:59:48.452Z,7.47
2018-07-31T05:02:16.784Z,7.43
2018-07-31T05:04:45.103Z,7.50
2018-07-31T05:07:13.405Z,7.30
2018-07-31T05:09:41.750Z,7.30
2018-07-31T05:12:10.080Z,7.60
2018-07-31T05:14:38.391Z,7.20
2018-07-31T05:17:06.731Z,6.97
2018-07-31T05:19:35.060Z,6.70
2018-07-31T05:22:03.440Z,7.20
2018-07-31T05:24:31.752Z,7.47
2018-07-31T05:27:00.083Z,7.00
2018-07-31T05:29:28.403Z,6.63
2018-07-31T05:31:56.720Z,6.70
2018-07-31T05:34:25.110Z,7.47
2018-07-31T05:36:53.636Z,7.23
2018-07-31T05:39:21.976Z,6.57
2018-07-31T05:41:50.290Z,7.13
2018-07-31T05:44:18.628Z,7.00
2018-07-31T05:46:46.947Z,6.90
2018-07-31T05:49:15.276Z,6.77
2018-07-31T05:51:43.647Z,6.50
2018-07-31T05:54:11.978Z,6.27
2018-07-31T05:56:40.312Z,6.97
2018-07-31T05:59:08.642Z,7.10
2018-07-31T06:01:36.967Z,6.37
2018-07-31T06:04:05.324Z,6.40
2018-07-31T06:06:33.647Z,6.77
2018-07-31T06:09:01.974Z,6.33
2018-07-31T06:11:30.300Z,6.57
2018-07-31T06:13:58.636Z,6.43
2018-07-31T06:16:26.995Z,6.50
2018-07-31T06:18:55.339Z,6.17
2018-07-31T06:21:23.665Z,6.20
2018-07-31T06:23:52.016Z,6.90
2018-07-31T06:26:20.361Z,6.87
2018-07-31T06:28:48.721Z,6.23
2018-07-31T06:31:17.067Z,6.17
2018-07-31T06:33:45.411Z,6.63
2018-07-31T06:36:13.760Z,6.27
2018-07-31T06:38:42.110Z,6.10
2018-07-31T06:41:10.446Z,5.83
2018-07-31T06:43:38.789Z,6.07
2018-07-31T06:46:07.949Z,5.78
2018-07-31T06:48:36.291Z,4.97
2018-07-31T06:51:04.618Z,4.58
2018-07-31T06:53:32.951Z,5.20
2018-07-31T06:56:01.286Z,5.05
2018-07-31T06:58:29.652Z,5.00
2018-07-31T07:00:57.985Z,4.53
2018-07-31T07:03:26.718Z,4.45
2018-07-31T07:05:55.669Z,4.60
2018-07-31T07:08:23.989Z,4.83
2018-07-31T07:10:52.311Z,4.55
2018-07-31T07:13:20.714Z,4.10
2018-07-31T07:15:49.101Z,4.40
2018-07-31T07:18:17.439Z,4.03
2018-07-31T07:20:45.780Z,4.05
2018-07-31T07:23:14.114Z,3.92
2018-07-31T07:25:42.648Z,3.90
2018-07-31T07:28:11.050Z,3.98
2018-07-31T07:30:39.374Z,3.80
2018-07-31T07:33:07.705Z,3.95
2018-07-31T07:35:36.213Z,3.92
2018-07-31T07:38:04.534Z,4.00
2018-07-31T07:40:32.850Z,3.75
2018-07-31T07:43:01.168Z,3.70
2018-07-31T07:45:29.508Z,3.62
2018-07-31T07:47:57.845Z,4.22
2018-07-31T07:50:26.181Z,4.15
2018-07-31T07:52:54.607Z,4.60
2018-07-31T07:55:22.952Z,4.35
2018-07-31T07:57:51.301Z,4.60
2018-07-31T08:00:19.662Z,4.95
2018-07-31T08:02:48.003Z,5.40
2018-07-31T08:05:16.339Z,5.30
2018-07-31T08:07:44.670Z,5.25
2018-07-31T08:10:13.011Z,5.10
2018-07-31T08:12:41.387Z,5.85
2018-07-31T08:15:09.709Z,6.17
2018-07-31T08:17:38.050Z,6.40
2018-07-31T08:20:06.920Z,6.33
2018-07-31T08:22:35.312Z,5.95
2018-07-31T08:25:03.656Z,6.90
2018-07-31T08:27:31.966Z,6.75
2018-07-31T08:30:00.317Z,6.60
2018-07-31T08:32:28.680Z,6.37
2018-07-31T08:34:57.003Z,6.33
2018-07-31T08:37:25.325Z,5.47
2018-07-31T08:39:53.690Z,5.92
2018-07-31T08:42:22.037Z,5.67
2018-07-31T08:44:50.356Z,5.40
2018-07-31T08:47:18.675Z,5.03
2018-07-31T08:49:47.013Z,5.10
2018-07-31T08:52:15.561Z,5.97
2018-07-31T08:54:43.889Z,5.65
2018-07-31T08:57:12.240Z,5.42
2018-07-31T08:59:40.572Z,5.85
2018-07-31T09:02:08.903Z,5.95
2018-07-31T09:04:37.284Z,6.17
2018-07-31T09:07:05.624Z,6.78
2018-07-31T09:09:33.997Z,7.00
2018-07-31T09:12:02.298Z,7.00
2018-07-31T09:14:30.605Z,7.00
2018-07-31T09:16:58.906Z,7.97
2018-07-31T09:19:27.263Z,9.30
2018-07-31T09:21:55.589Z,7.75
2018-07-31T09:24:23.896Z,8.93
2018-07-31T09:26:52.216Z,9.38
2018-07-31T09:29:20.560Z,8.75
2018-07-31T09:31:48.882Z,9.20
2018-07-31T09:34:17.195Z,9.05
2018-07-31T09:36:45.486Z,8.60
2018-07-31T09:39:13.819Z,10.45
2018-07-31T09:41:42.131Z,10.23
2018-07-31T09:44:10.574Z,9.45
2018-07-31T09:46:38.894Z,9.75
2018-07-31T09:49:07.231Z,9.15
2018-07-31T09:51:35.537Z,8.38
2018-07-31T09:54:03.901Z,10.05
2018-07-31T09:56:32.202Z,9.93
2018-07-31T09:59:00.566Z,10.23
2018-07-31T10:01:28.870Z,11.05
2018-07-31T10:03:57.234Z,11.15
2018-07-31T10:06:25.536Z,10.85
2018-07-31T10:08:53.870Z,9.68
2018-07-31T10:11:22.187Z,10.25
2018-07-31T10:13:50.626Z,10.38
2018-07-31T10:16:18.960Z,10.65
2018-07-31T10:18:47.306Z,10.30
2018-07-31T10:21:15.662Z,9.43
2018-07-31T10:23:43.975Z,8.98
2018-07-31T10:26:12.295Z,8.33
2018-07-31T10:28:40.616Z,7.70
2018-07-31T10:31:08.922Z,8.83
2018-07-31T10:33:37.249Z,7.45
2018-07-31T10:36:05.630Z,8.18
2018-07-31T10:38:33.954Z,7.50
2018-07-31T10:41:02.283Z,7.78
2018-07-31T10:43:30.586Z,6.85
2018-07-31T10:45:58.902Z,4.65
2018-07-31T10:48:27.241Z,3.40
2018-07-31T10:50:55.597Z,2.67
2018-07-31T10:53:25.318Z,2.67
2018-07-31T10:55:53.654Z,2.80
2018-07-31T10:58:22.415Z,2.70
2018-07-31T11:00:50.755Z,2.67
2018-07-31T11:03:19.062Z,2.87
2018-07-31T11:05:47.358Z,3.25
2018-07-31T11:08:15.750Z,3.08
2018-07-31T11:10:44.100Z,3.20
2018-07-31T11:13:12.456Z,3.50
2018-07-31T11:15:41.034Z,3.25
2018-07-31T11:18:09.407Z,3.22
2018-07-31T11:20:37.738Z,3.30
2018-07-31T11:23:06.127Z,3.40
2018-07-31T11:25:34.476Z,3.42
2018-07-31T11:28:02.831Z,3.75
2018-07-31T11:30:31.149Z,3.62
2018-07-31T11:32:59.542Z,3.87
2018-07-31T11:35:27.919Z,3.70
2018-07-31T11:37:56.255Z,3.50
2018-07-31T11:40:24.585Z,3.47
2018-07-31T11:42:52.924Z,3.60
2018-07-31T11:45:21.263Z,3.58
2018-07-31T11:47:49.577Z,3.60
2018-07-31T11:50:17.921Z,3.87
2018-07-31T11:52:46.265Z,3.75
2018-07-31T11:55:14.615Z,4.00
2018-07-31T11:57:42.936Z,4.00
2018-07-31T12:00:12.594Z,3.80
2018-07-31T12:02:41.075Z,3.90
2018-07-31T12:05:09.423Z,3.98
2018-07-31T12:07:38.652Z,3.77
2018-07-31T12:10:07.032Z,3.77
2018-07-31T12:12:35.409Z,4.12
2018-07-31T12:15:03.771Z,3.60
2018-07-31T12:17:32.107Z,3.83
2018-07-31T12:20:00.431Z,3.85
2018-07-31T12:22:28.790Z,3.98
2018-07-31T12:24:57.108Z,3.85
2018-07-31T12:27:25.448Z,4.08
2018-07-31T12:29:53.783Z,3.90
2018-07-31T12:32:22.105Z,4.08
2018-07-31T12:34:50.419Z,4.33
2018-07-31T12:37:18.766Z,4.67
2018-07-31T12:39:47.084Z,3.80
2018-07-31T12:42:15.439Z,4.20
2018-07-31T12:44:43.798Z,4.12
2018-07-31T12:47:12.104Z,4.03
2018-07-31T12:49:40.450Z,4.03
2018-07-31T12:52:08.844Z,4.20
2018-07-31T12:54:37.160Z,4.05
2018-07-31T12:57:05.643Z,3.75
2018-07-31T12:59:33.968Z,4.17
2018-07-31T13:02:02.312Z,4.40
2018-07-31T13:04:30.650Z,4.37
2018-07-31T13:06:59.001Z,4.12
2018-07-31T13:09:27.365Z,4.33
2018-07-31T13:11:55.685Z,4.00
2018-07-31T13:14:24.027Z,4.13
2018-07-31T13:16:52.360Z,4.33
2018-07-31T13:19:20.713Z,4.12
2018-07-31T13:21:49.057Z,3.85
2018-07-31T13:24:17.386Z,4.57
2018-07-31T13:26:45.726Z,7.80
2018-07-31T13:29:14.031Z,4.22
2018-07-31T13:31:42.389Z,3.75
2018-07-31T13:34:10.744Z,4.00
2018-07-31T13:36:39.140Z,3.93
2018-07-31T13:39:09.199Z,3.85
2018-07-31T13:41:37.507Z,3.97
2018-07-31T13:44:06.169Z,4.13
2018-07-31T13:46:34.467Z,4.28
2018-07-31T13:49:02.844Z,4.20
2018-07-31T13:51:31.224Z,4.22
2018-07-31T13:53:59.568Z,4.10
2018-07-31T13:56:28.248Z,3.60
2018-07-31T13:58:56.633Z,3.67
2018-07-31T14:01:24.985Z,4.10
2018-07-31T14:03:53.330Z,4.30
2018-07-31T14:06:21.708Z,4.10
2018-07-31T14:08:50.059Z,3.92
2018-07-31T14:11:18.391Z,4.15
2018-07-31T14:13:46.779Z,3.72
2018-07-31T14:16:15.098Z,4.07
2018-07-31T14:18:43.432Z,4.00
2018-07-31T14:21:11.800Z,4.08
2018-07-31T14:23:40.131Z,4.03
2018-07-31T14:26:08.516Z,4.07
2018-07-31T14:28:36.839Z,3.90
2018-07-31T14:31:05.171Z,3.90
2018-07-31T14:33:33.522Z,3.90
2018-07-31T14:36:01.827Z,4.40
2018-07-31T14:38:30.174Z,4.23
2018-07-31T14:40:58.526Z,4.10
2018-07-31T14:43:26.877Z,3.73
2018-07-31T14:45:55.214Z,4.20
2018-07-31T14:48:23.650Z,4.10
2018-07-31T14:50:51.989Z,4.23
2018-07-31T14:53:20.465Z,4.03
2018-07-31T14:55:48.873Z,3.80
2018-07-31T14:58:17.209Z,4.30
2018-07-31T15:00:45.529Z,4.27
2018-07-31T15:03:13.838Z,4.37
2018-07-31T15:05:42.188Z,4.07
2018-07-31T15:08:10.502Z,4.40
2018-07-31T15:10:38.843Z,3.83
2018-07-31T15:13:07.190Z,4.30
2018-07-31T15:15:35.529Z,4.12
2018-07-31T15:18:03.859Z,3.80
2018-07-31T15:20:32.238Z,3.90
2018-07-31T15:23:00.569Z,4.00
2018-07-31T15:25:28.908Z,3.90
2018-07-31T15:27:57.250Z,3.63
2018-07-31T15:30:25.621Z,4.03
2018-07-31T15:32:53.977Z,4.50
2018-07-31T15:35:22.376Z,4.03
2018-07-31T15:37:50.700Z,3.90
2018-07-31T15:40:19.063Z,3.80
2018-07-31T15:42:47.515Z,3.70
2018-07-31T15:45:15.855Z,3.70
2018-07-31T15:47:44.274Z,4.00
2018-07-31T15:50:12.629Z,3.92
2018-07-31T15:52:41.005Z,4.27
2018-07-31T15:55:09.389Z,3.93
2018-07-31T15:57:37.766Z,3.70
2018-07-31T16:00:08.522Z,3.67
2018-07-31T16:02:37.128Z,3.95
2018-07-31T16:05:05.642Z,3.87
2018-07-31T16:07:33.973Z,4.13
2018-07-31T16:10:02.324Z,3.63
2018-07-31T16:12:30.655Z,4.20
2018-07-31T16:14:59.037Z,4.00
2018-07-31T16:17:27.385Z,3.97
2018-07-31T16:19:55.841Z,4.27
2018-07-31T16:22:24.757Z,4.07
2018-07-31T16:24:53.105Z,4.00
2018-07-31T16:27:21.440Z,3.90
2018-07-31T16:29:49.843Z,3.60
2018-07-31T16:32:18.246Z,4.00
2018-07-31T16:34:46.629Z,4.10
2018-07-31T16:37:15.003Z,3.97
2018-07-31T16:39:43.431Z,3.93
2018-07-31T16:42:11.813Z,3.80
2018-07-31T16:44:40.239Z,3.70
2018-07-31T16:47:08.618Z,3.83
2018-07-31T16:49:37.005Z,3.40
2018-07-31T16:52:05.335Z,4.07
2018-07-31T16:54:33.783Z,4.17
2018-07-31T16:57:02.277Z,4.03
2018-07-31T16:59:30.604Z,4.10
2018-07-31T17:01:58.951Z,3.93
2018-07-31T17:04:27.318Z,3.90
2018-07-31T17:06:55.696Z,4.03
2018-07-31T17:09:24.037Z,3.70
2018-07-31T17:11:52.500Z,3.63
2018-07-31T17:14:20.964Z,4.30
2018-07-31T17:16:49.375Z,3.67
2018-07-31T17:19:17.751Z,3.57
2018-07-31T17:21:46.800Z,3.83
2018-07-31T17:24:15.162Z,3.80
2018-07-31T17:26:43.541Z,3.63
2018-07-31T17:29:11.948Z,4.30
2018-07-31T17:31:40.307Z,3.97
2018-07-31T17:34:08.733Z,4.07
2018-07-31T17:36:37.121Z,4.00
2018-07-31T17:39:08.104Z,3.90
2018-07-31T17:41:36.479Z,4.50
2018-07-31T17:44:04.873Z,4.10
2018-07-31T17:46:33.344Z,4.67
2018-07-31T17:49:01.678Z,4.30
2018-07-31T17:51:30.047Z,4.10
2018-07-31T17:53:58.438Z,4.80
2018-07-31T17:56:26.841Z,4.40
2018-07-31T17:58:55.226Z,4.90
2018-07-31T18:01:23.593Z,4.90
2018-07-31T18:03:51.974Z,5.40
2018-07-31T18:06:20.371Z,4.53
2018-07-31T18:08:48.715Z,5.10
2018-07-31T18:11:17.048Z,4.73
2018-07-31T18:13:45.385Z,4.60
2018-07-31T18:16:13.735Z,5.53
2018-07-31T18:18:42.127Z,4.90
2018-07-31T18:21:10.440Z,4.93
2018-07-31T18:23:38.868Z,4.93
2018-07-31T18:26:07.168Z,4.97
2018-07-31T18:28:35.561Z,5.13
2018-07-31T18:31:03.937Z,4.77
2018-07-31T18:33:32.326Z,4.60
2018-07-31T18:36:00.704Z,5.30
2018-07-31T18:38:29.064Z,4.87
2018-07-31T18:40:57.436Z,5.30
2018-07-31T18:43:25.795Z,5.43
2018-07-31T18:45:54.154Z,5.23
2018-07-31T18:48:22.516Z,5.47
2018-07-31T18:50:50.854Z,5.20
2018-07-31T18:53:19.342Z,5.13
2018-07-31T18:55:47.650Z,5.93
2018-07-31T18:58:16.029Z,5.77
2018-07-31T19:00:44.369Z,5.67
2018-07-31T19:03:12.716Z,6.00
2018-07-31T19:05:41.053Z,5.57
2018-07-31T19:08:09.432Z,5.70
2018-07-31T19:10:37.782Z,6.00
2018-07-31T19:13:06.287Z,6.27
2018-07-31T19:15:34.642Z,6.23
2018-07-31T19:18:02.991Z,6.13
2018-07-31T19:20:31.332Z,6.27
2018-07-31T19:22:59.717Z,5.77
2018-07-31T19:25:28.132Z,5.80
2018-07-31T19:27:56.535Z,6.50
2018-07-31T19:30:24.887Z,6.23
2018-07-31T19:32:53.242Z,6.23
2018-07-31T19:35:21.594Z,6.03
2018-07-31T19:37:49.920Z,6.63
2018-07-31T19:40:18.300Z,6.73
2018-07-31T19:42:46.841Z,6.10
2018-07-31T19:45:15.189Z,6.50
2018-07-31T19:47:43.541Z,6.83
2018-07-31T19:50:11.888Z,6.30
2018-07-31T19:52:40.778Z,7.40
2018-07-31T19:55:09.152Z,6.47
2018-07-31T19:57:37.514Z,7.00
2018-07-31T20:00:06.254Z,9.73
2018-07-31T20:02:34.661Z,6.90
2018-07-31T20:05:03.056Z,7.33
2018-07-31T20:07:31.397Z,7.30
2018-07-31T20:09:59.768Z,6.40
2018-07-31T20:12:28.108Z,7.77
2018-07-31T20:14:56.499Z,6.37
2018-07-31T20:17:24.864Z,6.83
2018-07-31T20:19:53.283Z,7.10
2018-07-31T20:22:21.648Z,6.80
2018-07-31T20:24:50.311Z,6.93
2018-07-31T20:27:18.658Z,6.77
2018-07-31T20:29:47.008Z,7.03
2018-07-31T20:32:15.413Z,6.80
2018-07-31T20:34:43.800Z,6.77
2018-07-31T20:37:12.173Z,7.20
2018-07-31T20:39:40.511Z,6.63
2018-07-31T20:42:08.857Z,6.60
2018-07-31T20:44:37.207Z,7.07
2018-07-31T20:47:05.579Z,7.07
2018-07-31T20:49:33.911Z,7.13
2018-07-31T20:52:02.289Z,6.90
2018-07-31T20:54:30.671Z,7.00
2018-07-31T20:56:59.015Z,8.10
2018-07-31T20:59:27.407Z,7.10
2018-07-31T21:01:55.784Z,8.13
2018-07-31T21:04:24.991Z,6.97
2018-07-31T21:06:53.320Z,7.00
2018-07-31T21:09:22.152Z,7.27
2018-07-31T21:11:51.615Z,7.20
2018-07-31T21:14:20.436Z,7.47
2018-07-31T21:16:48.835Z,7.40
2018-07-31T21:19:17.189Z,7.50
2018-07-31T21:21:45.524Z,7.07
2018-07-31T21:24:13.984Z,7.73
2018-07-31T21:26:42.323Z,7.07
2018-07-31T21:29:10.745Z,6.73
2018-07-31T21:31:39.082Z,7.20
2018-07-31T21:34:07.398Z,7.17
2018-07-31T21:36:35.723Z,7.07
2018-07-31T21:39:06.136Z,8.20
2018-07-31T21:41:34.509Z,7.23
2018-07-31T21:44:02.860Z,7.43
2018-07-31T21:46:31.192Z,7.80
2018-07-31T21:48:59.532Z,7.53
2018-07-31T21:51:27.871Z,7.10
2018-07-31T21:53:56.215Z,8.13
2018-07-31T21:56:24.536Z,7.57
2018-07-31T21:58:52.904Z,8.23
2018-07-31T22:01:21.249Z,7.93
2018-07-31T22:03:49.636Z,8.63
2018-07-31T22:06:18.010Z,8.07
2018-07-31T22:08:46.344Z,8.23
2018-07-31T22:11:14.703Z,7.77
2018-07-31T22:13:43.051Z,7.97
2018-07-31T22:16:11.421Z,8.10
2018-07-31T22:18:39.860Z,8.17
2018-07-31T22:21:08.215Z,8.10
2018-07-31T22:23:36.572Z,8.30
2018-07-31T22:26:04.962Z,8.63
2018-07-31T22:28:33.352Z,8.20
2018-07-31T22:31:01.772Z,8.60
2018-07-31T22:33:30.151Z,8.13
2018-07-31T22:35:58.496Z,8.67
2018-07-31T22:38:26.837Z,8.13
2018-07-31T22:40:55.230Z,8.53
2018-07-31T22:43:23.564Z,8.90
2018-07-31T22:45:51.940Z,8.43
2018-07-31T22:48:20.278Z,8.93
2018-07-31T22:50:48.596Z,8.47
2018-07-31T22:53:16.930Z,8.27
2018-07-31T22:55:46.031Z,8.87
2018-07-31T22:58:14.385Z,9.23
2018-07-31T23:00:42.730Z,9.20
2018-07-31T23:03:11.059Z,9.20
2018-07-31T23:05:39.410Z,9.33
2018-07-31T23:08:07.796Z,9.57
2018-07-31T23:10:36.143Z,8.87
2018-07-31T23:13:04.480Z,9.03
2018-07-31T23:15:32.831Z,9.47
2018-07-31T23:18:01.176Z,9.53
2018-07-31T23:20:29.515Z,9.13
2018-07-31T23:22:57.887Z,9.33
2018-07-31T23:25:26.244Z,9.03
2018-07-31T23:27:54.587Z,9.97
2018-07-31T23:30:22.949Z,9.03
2018-07-31T23:32:51.313Z,9.57
2018-07-31T23:35:19.659Z,10.00
2018-07-31T23:37:48.030Z,9.17
2018-07-31T23:40:16.383Z,9.53
2018-07-31T23:42:44.723Z,9.20
2018-07-31T23:45:13.071Z,9.50
2018-07-31T23:47:41.418Z,9.37
2018-07-31T23:50:09.778Z,10.00
2018-07-31T23:52:38.176Z,9.13
2018-07-31T23:55:06.506Z,9.40
2018-07-31T23:57:34.863Z,9.30
